Terminal Aerodrome Forecast
Issued by NWS

Home | Current Version | Previous Version | Text Only | Print | Product List | Glossary On
Versions: 1 2 3 4 5 6 7 8 9 10 11 12
000
FTUS42 TJSJ 151720
TAFJBQ
TAF
TJBQ 151720Z 1518/1618 08014G21KT P6SM SCT030
     FM152200 09010KT P6SM FEW030
     FM161400 08016G22KT P6SM FEW025
      AMD NOT SKED 1602/1611=

USA.gov is the U.S. government's official web portal to all federal, state and local government web resources and services.